createdAt,value
2023-01-17T00:02:03.043Z,9.10
2023-01-17T00:04:48.662Z,9.12
2023-01-17T00:07:36.887Z,9.14
2023-01-17T00:10:29.799Z,9.08
2023-01-17T00:12:58.996Z,9.13
2023-01-17T00:15:27.293Z,9.13
2023-01-17T00:17:54.377Z,9.11
2023-01-17T00:20:45.576Z,8.99
2023-01-17T00:23:42.427Z,9.00
2023-01-17T00:26:14.366Z,9.00
2023-01-17T00:28:42.925Z,8.99
2023-01-17T00:31:11.526Z,8.97
2023-01-17T00:33:38.488Z,9.00
2023-01-17T00:36:06.184Z,9.01
2023-01-17T00:38:35.710Z,9.02
2023-01-17T00:41:07.583Z,8.95
2023-01-17T00:43:52.983Z,8.96
2023-01-17T00:46:38.430Z,8.99
2023-01-17T00:49:24.280Z,8.98
2023-01-17T00:52:10.021Z,9.00
2023-01-17T00:54:55.040Z,8.94
2023-01-17T00:57:39.879Z,9.01
2023-01-17T01:00:25.672Z,9.05
2023-01-17T01:03:10.772Z,9.09
2023-01-17T01:05:56.703Z,9.05
2023-01-17T01:08:46.772Z,9.13
2023-01-17T01:11:36.041Z,9.18
2023-01-17T01:14:21.279Z,9.18
2023-01-17T01:17:06.222Z,9.16
2023-01-17T01:19:51.547Z,9.19
2023-01-17T01:22:36.493Z,9.30
2023-01-17T01:25:21.678Z,9.43
2023-01-17T01:28:06.688Z,9.38
2023-01-17T01:30:51.777Z,9.29
2023-01-17T01:33:21.016Z,9.29
2023-01-17T01:35:52.515Z,9.38
2023-01-17T01:38:20.836Z,9.42
2023-01-17T01:40:49.997Z,9.43
2023-01-17T01:43:20.161Z,9.45
2023-01-17T01:45:57.393Z,9.38
2023-01-17T01:48:33.844Z,9.35
2023-01-17T01:51:04.714Z,9.42
2023-01-17T01:53:35.661Z,9.44
2023-01-17T01:56:05.568Z,9.49
2023-01-17T01:58:34.795Z,9.49
2023-01-17T02:01:01.459Z,9.53
2023-01-17T02:03:32.529Z,9.48
2023-01-17T02:06:07.700Z,9.49
2023-01-17T02:08:35.342Z,9.45
2023-01-17T02:11:02.386Z,9.43
2023-01-17T02:13:29.208Z,9.43
2023-01-17T02:16:04.725Z,9.45
2023-01-17T02:18:49.459Z,9.48
2023-01-17T02:21:26.328Z,9.43
2023-01-17T02:23:55.814Z,9.47
2023-01-17T02:26:50.185Z,9.47
2023-01-17T02:29:19.620Z,9.37
2023-01-17T02:32:08.715Z,9.36
2023-01-17T02:34:51.380Z,9.33
2023-01-17T02:37:41.382Z,9.27
2023-01-17T02:40:14.358Z,9.28
2023-01-17T02:42:48.265Z,9.23
2023-01-17T02:45:17.848Z,9.22
2023-01-17T02:47:44.700Z,9.26
2023-01-17T02:50:20.741Z,9.20
2023-01-17T02:53:25.339Z,9.24
2023-01-17T02:56:10.339Z,9.31
2023-01-17T02:58:58.509Z,9.34
2023-01-17T03:01:41.548Z,9.34
2023-01-17T03:04:50.342Z,9.30
2023-01-17T03:07:23.619Z,9.27
2023-01-17T03:09:56.317Z,9.26
2023-01-17T03:12:22.968Z,9.27
2023-01-17T03:14:49.736Z,9.27
2023-01-17T03:17:16.572Z,9.30
2023-01-17T03:19:43.208Z,9.28
2023-01-17T03:22:09.853Z,9.30
2023-01-17T03:24:36.364Z,9.36
2023-01-17T03:27:02.947Z,9.35
2023-01-17T03:29:29.456Z,9.30
2023-01-17T03:31:56.002Z,9.25
2023-01-17T03:34:22.676Z,9.26
2023-01-17T03:36:49.685Z,9.24
2023-01-17T03:39:16.248Z,9.29
2023-01-17T03:41:42.786Z,9.23
2023-01-17T03:44:09.426Z,9.15
2023-01-17T03:46:36.785Z,9.14
2023-01-17T03:49:03.268Z,9.15
2023-01-17T03:51:29.856Z,9.14
2023-01-17T03:53:56.409Z,9.14
2023-01-17T03:56:22.957Z,9.13
2023-01-17T03:58:49.510Z,9.07
2023-01-17T04:01:16.131Z,9.08
2023-01-17T04:03:42.705Z,9.05
2023-01-17T04:06:09.501Z,9.05
2023-01-17T04:08:36.102Z,9.05
2023-01-17T04:11:02.742Z,9.09
2023-01-17T04:13:29.317Z,9.07
2023-01-17T04:15:56.208Z,9.13
2023-01-17T04:18:24.275Z,9.17
2023-01-17T04:20:51.565Z,9.24
2023-01-17T04:23:18.472Z,9.26
2023-01-17T04:25:45.228Z,9.23
2023-01-17T04:28:12.323Z,9.32
2023-01-17T04:30:39.247Z,9.33
2023-01-17T04:33:05.932Z,9.35
2023-01-17T04:35:33.630Z,9.34
2023-01-17T04:38:00.209Z,9.28
2023-01-17T04:40:26.775Z,9.26
2023-01-17T04:42:54.365Z,9.19
2023-01-17T04:45:21.306Z,9.20
2023-01-17T04:47:47.926Z,9.15
2023-01-17T04:50:14.586Z,9.01
2023-01-17T04:52:41.128Z,8.86
2023-01-17T04:55:08.337Z,8.88
2023-01-17T04:57:34.918Z,8.92
2023-01-17T05:00:01.529Z,9.06
2023-01-17T05:02:28.131Z,9.06
2023-01-17T05:04:54.739Z,9.09
2023-01-17T05:07:21.311Z,9.07
2023-01-17T05:09:48.052Z,9.10
2023-01-17T05:12:14.781Z,9.07
2023-01-17T05:14:41.381Z,9.05
2023-01-17T05:17:07.915Z,9.06
2023-01-17T05:19:34.679Z,9.06
2023-01-17T05:22:04.155Z,9.06
2023-01-17T05:24:31.672Z,9.03
2023-01-17T05:27:03.132Z,9.10
2023-01-17T05:29:30.644Z,9.09
2023-01-17T05:31:57.574Z,9.11
2023-01-17T05:34:24.475Z,9.10
2023-01-17T05:36:51.275Z,9.15
2023-01-17T05:39:18.105Z,9.12
2023-01-17T05:41:44.725Z,9.21
2023-01-17T05:44:11.589Z,9.20
2023-01-17T05:46:38.342Z,9.20
2023-01-17T05:49:05.380Z,9.25
2023-01-17T05:51:32.141Z,9.24
2023-01-17T05:53:58.717Z,9.14
2023-01-17T05:56:25.404Z,9.18
2023-01-17T05:58:52.284Z,9.13
2023-01-17T06:01:19.692Z,9.19
2023-01-17T06:03:46.389Z,9.13
2023-01-17T06:06:13.164Z,9.08
2023-01-17T06:08:39.741Z,9.13
2023-01-17T06:11:06.455Z,9.18
2023-01-17T06:13:33.045Z,9.18
2023-01-17T06:16:03.017Z,9.21
2023-01-17T06:18:31.137Z,9.20
2023-01-17T06:20:58.295Z,9.18
2023-01-17T06:23:25.013Z,9.24
2023-01-17T06:25:51.658Z,9.31
2023-01-17T06:28:20.627Z,9.28
2023-01-17T06:30:47.440Z,9.37
2023-01-17T06:33:14.514Z,9.43
2023-01-17T06:35:48.255Z,9.46
2023-01-17T06:38:14.934Z,9.52
2023-01-17T06:40:41.452Z,9.44
2023-01-17T06:43:08.037Z,9.45
2023-01-17T06:45:35.867Z,9.48
2023-01-17T06:48:04.262Z,9.54
2023-01-17T06:50:32.006Z,9.58
2023-01-17T06:53:04.296Z,9.68
2023-01-17T06:55:33.738Z,9.63
2023-01-17T06:58:02.682Z,9.76
2023-01-17T07:00:31.220Z,9.78
2023-01-17T07:02:58.007Z,9.78
2023-01-17T07:05:25.232Z,9.74
2023-01-17T07:07:51.969Z,9.76
2023-01-17T07:10:18.566Z,9.80
2023-01-17T07:12:45.142Z,9.89
2023-01-17T07:15:12.217Z,9.93
2023-01-17T07:17:39.185Z,9.93
2023-01-17T07:20:06.823Z,9.93
2023-01-17T07:22:33.355Z,9.85
2023-01-17T07:25:00.368Z,9.90
2023-01-17T07:27:30.422Z,9.96
2023-01-17T07:29:57.631Z,10.00
2023-01-17T07:32:26.611Z,10.04
2023-01-17T07:34:54.223Z,10.03
2023-01-17T07:37:21.148Z,10.10
2023-01-17T07:39:47.769Z,10.15
2023-01-17T07:42:14.349Z,10.13
2023-01-17T07:44:43.998Z,10.17
2023-01-17T07:47:11.320Z,10.13
2023-01-17T07:49:37.987Z,10.19
2023-01-17T07:52:07.759Z,10.16
2023-01-17T07:54:34.455Z,10.24
2023-01-17T07:57:01.422Z,10.22
2023-01-17T07:59:28.031Z,10.33
2023-01-17T08:01:54.676Z,10.34
2023-01-17T08:04:21.363Z,10.40
2023-01-17T08:06:51.010Z,10.43
2023-01-17T08:09:17.639Z,10.52
2023-01-17T08:11:44.180Z,10.53
2023-01-17T08:14:10.740Z,10.58
2023-01-17T08:16:38.176Z,10.61
2023-01-17T08:19:04.729Z,10.61
2023-01-17T08:21:31.304Z,10.65
2023-01-17T08:23:57.885Z,10.65
2023-01-17T08:26:24.412Z,10.74
2023-01-17T08:29:00.898Z,10.79
2023-01-17T08:31:33.445Z,10.85
2023-01-17T08:34:00.086Z,10.86
2023-01-17T08:36:28.585Z,10.94
2023-01-17T08:38:55.540Z,10.97
2023-01-17T08:41:23.641Z,10.95
2023-01-17T08:43:51.749Z,10.97
2023-01-17T08:46:19.067Z,10.95
2023-01-17T08:48:46.100Z,11.00
2023-01-17T08:51:13.047Z,11.11
2023-01-17T08:53:40.641Z,11.11
2023-01-17T08:56:07.690Z,11.17
2023-01-17T08:58:35.871Z,11.11
2023-01-17T09:01:04.322Z,11.10
2023-01-17T09:03:32.198Z,11.17
2023-01-17T09:06:07.643Z,11.23
2023-01-17T09:08:34.854Z,11.23
2023-01-17T09:11:09.544Z,11.29
2023-01-17T09:13:36.666Z,11.24
2023-01-17T09:16:04.494Z,11.22
2023-01-17T09:18:32.927Z,11.19
2023-01-17T09:20:59.924Z,11.28
2023-01-17T09:23:29.750Z,11.34
2023-01-17T09:25:58.340Z,11.28
2023-01-17T09:28:26.664Z,11.33
2023-01-17T09:30:54.097Z,11.28
2023-01-17T09:33:23.281Z,11.31
2023-01-17T09:35:50.038Z,11.26
2023-01-17T09:38:16.800Z,11.32
2023-01-17T09:40:46.605Z,11.35
2023-01-17T09:43:23.643Z,11.36
2023-01-17T09:45:50.486Z,11.36
2023-01-17T09:48:28.260Z,11.39
2023-01-17T09:51:04.668Z,11.37
2023-01-17T09:53:37.542Z,11.37
2023-01-17T09:56:10.478Z,11.42
2023-01-17T09:58:48.054Z,11.44
2023-01-17T10:01:50.254Z,11.45
2023-01-17T10:04:25.871Z,11.46
2023-01-17T10:06:58.455Z,11.49
2023-01-17T10:09:30.216Z,11.45
2023-01-17T10:12:06.436Z,11.42
2023-01-17T10:15:18.211Z,11.46
2023-01-17T10:17:59.143Z,11.47
2023-01-17T10:20:40.761Z,11.48
2023-01-17T10:23:22.179Z,11.47
2023-01-17T10:25:52.515Z,11.48
2023-01-17T10:28:51.090Z,11.54
2023-01-17T10:31:31.081Z,11.51
2023-01-17T10:34:06.874Z,11.58
2023-01-17T10:36:41.496Z,11.56
2023-01-17T10:39:20.322Z,11.66
2023-01-17T10:41:58.062Z,11.73
2023-01-17T10:44:33.309Z,11.75
2023-01-17T10:47:08.758Z,11.76
2023-01-17T10:49:39.844Z,11.90
2023-01-17T10:52:24.537Z,11.96
2023-01-17T10:55:05.272Z,12.02
2023-01-17T10:57:46.009Z,12.05
2023-01-17T11:00:41.825Z,12.15
2023-01-17T11:03:11.431Z,12.20
2023-01-17T11:05:40.716Z,12.24
2023-01-17T11:08:13.549Z,12.34
2023-01-17T11:10:40.241Z,12.45
2023-01-17T11:13:29.864Z,12.50
2023-01-17T11:16:03.075Z,12.65
2023-01-17T11:18:35.776Z,12.70
2023-01-17T11:21:28.818Z,12.77
2023-01-17T11:23:57.213Z,12.70
2023-01-17T11:26:28.569Z,12.68
2023-01-17T11:29:38.923Z,12.74
2023-01-17T11:32:23.683Z,12.77
2023-01-17T11:35:35.171Z,12.82
2023-01-17T11:38:27.768Z,12.84
2023-01-17T11:41:14.293Z,12.82
2023-01-17T11:43:55.720Z,12.90
2023-01-17T11:46:23.991Z,12.95
2023-01-17T11:48:59.640Z,13.03
2023-01-17T11:51:41.413Z,13.11
2023-01-17T11:54:38.918Z,13.16
2023-01-17T11:57:07.419Z,13.18
2023-01-17T11:59:38.744Z,13.25
2023-01-17T12:02:42.906Z,13.33
2023-01-17T12:05:18.656Z,13.57
2023-01-17T12:08:03.673Z,13.56
2023-01-17T12:10:44.239Z,13.60
2023-01-17T12:13:40.245Z,13.78
2023-01-17T12:16:31.287Z,14.00
2023-01-17T12:19:26.869Z,14.22
2023-01-17T12:22:33.915Z,14.07
2023-01-17T12:25:14.917Z,13.93
2023-01-17T12:27:42.712Z,13.85
2023-01-17T12:30:57.564Z,13.76
2023-01-17T12:33:54.991Z,13.64
2023-01-17T12:36:40.062Z,13.65
2023-01-17T12:39:11.766Z,13.67
2023-01-17T12:41:51.880Z,13.76
2023-01-17T12:44:22.213Z,13.68
2023-01-17T12:47:00.708Z,13.78
2023-01-17T12:49:41.697Z,13.84
2023-01-17T12:52:20.101Z,13.85
2023-01-17T12:54:53.300Z,13.90
2023-01-17T12:57:27.404Z,14.03
2023-01-17T13:00:00.037Z,14.09
2023-01-17T13:02:36.463Z,14.11
2023-01-17T13:05:03.197Z,14.10
2023-01-17T13:08:05.028Z,14.01
2023-01-17T13:10:51.169Z,13.93
2023-01-17T13:13:26.262Z,13.90
2023-01-17T13:15:58.328Z,13.86
2023-01-17T13:18:29.560Z,13.80
2023-01-17T13:21:06.160Z,13.69
2023-01-17T13:24:02.229Z,13.64
2023-01-17T13:26:28.796Z,13.57
2023-01-17T13:29:00.602Z,13.60
2023-01-17T13:32:05.911Z,13.51
2023-01-17T13:35:03.510Z,13.53
2023-01-17T13:37:57.862Z,13.57
2023-01-17T13:40:34.294Z,13.54
2023-01-17T13:43:02.444Z,13.50
2023-01-17T13:45:32.787Z,13.54
2023-01-17T13:48:18.251Z,13.52
2023-01-17T13:50:49.087Z,13.47
2023-01-17T13:53:27.658Z,13.45
2023-01-17T13:56:25.394Z,13.45
2023-01-17T13:58:54.516Z,13.46
2023-01-17T14:01:23.899Z,13.47
2023-01-17T14:03:50.637Z,13.44
2023-01-17T14:06:35.572Z,13.44
2023-01-17T14:09:08.122Z,13.41
2023-01-17T14:11:36.928Z,13.38
2023-01-17T14:14:40.383Z,13.38
2023-01-17T14:17:37.296Z,13.40
2023-01-17T14:20:09.835Z,13.40
2023-01-17T14:22:41.162Z,13.37
2023-01-17T14:25:17.667Z,13.33
2023-01-17T14:27:47.251Z,13.34
2023-01-17T14:30:16.926Z,13.29
2023-01-17T14:32:58.659Z,13.24
2023-01-17T14:35:35.882Z,13.18
2023-01-17T14:38:03.340Z,13.19
2023-01-17T14:40:32.924Z,13.12
2023-01-17T14:43:07.422Z,13.13
2023-01-17T14:45:35.609Z,13.15
2023-01-17T14:48:14.505Z,13.19
2023-01-17T14:50:42.851Z,13.14
2023-01-17T14:53:16.251Z,13.21
2023-01-17T14:55:50.179Z,13.16
2023-01-17T14:58:21.727Z,13.16
2023-01-17T15:00:51.127Z,13.11
2023-01-17T15:03:17.937Z,13.11
2023-01-17T15:05:47.563Z,13.12
2023-01-17T15:08:17.923Z,13.17
2023-01-17T15:11:03.062Z,13.27
2023-01-17T15:13:44.352Z,13.24
2023-01-17T15:16:18.969Z,13.24
2023-01-17T15:18:46.306Z,13.20
2023-01-17T15:21:17.250Z,13.20
2023-01-17T15:23:48.153Z,13.18
2023-01-17T15:26:18.136Z,13.17
2023-01-17T15:28:45.692Z,13.17
2023-01-17T15:31:16.742Z,13.10
2023-01-17T15:33:46.867Z,13.11
2023-01-17T15:36:38.606Z,13.12
2023-01-17T15:39:17.650Z,13.00
2023-01-17T15:41:44.273Z,12.96
2023-01-17T15:44:47.487Z,13.05
2023-01-17T15:47:44.194Z,13.01
2023-01-17T15:50:20.282Z,13.01
2023-01-17T15:52:54.454Z,13.03
2023-01-17T15:55:29.660Z,13.01
2023-01-17T15:57:56.245Z,13.00
2023-01-17T16:00:32.520Z,13.03
2023-01-17T16:02:59.768Z,13.06
2023-01-17T16:05:31.010Z,13.05
2023-01-17T16:08:23.165Z,13.06
2023-01-17T16:10:54.843Z,13.03
2023-01-17T16:13:21.921Z,12.99
2023-01-17T16:15:48.711Z,12.97
2023-01-17T16:18:19.313Z,12.91
2023-01-17T16:20:45.834Z,12.98
2023-01-17T16:23:12.763Z,12.93
2023-01-17T16:25:39.381Z,12.92
2023-01-17T16:28:06.503Z,12.90
2023-01-17T16:30:33.742Z,12.88
2023-01-17T16:33:00.550Z,12.91
2023-01-17T16:35:30.157Z,12.93
2023-01-17T16:38:02.569Z,12.93
2023-01-17T16:40:31.930Z,12.98
2023-01-17T16:43:00.385Z,13.06
2023-01-17T16:45:27.517Z,13.10
2023-01-17T16:47:54.641Z,13.05
2023-01-17T16:50:24.126Z,13.12
2023-01-17T16:52:52.487Z,13.12
2023-01-17T16:55:22.443Z,13.12
2023-01-17T16:57:50.685Z,13.09
2023-01-17T17:00:18.497Z,13.09
2023-01-17T17:02:45.088Z,12.97
2023-01-17T17:05:11.765Z,12.90
2023-01-17T17:07:45.627Z,12.85
2023-01-17T17:10:15.400Z,12.74
2023-01-17T17:12:42.942Z,12.67
2023-01-17T17:15:10.802Z,12.60
2023-01-17T17:17:42.189Z,12.61
2023-01-17T17:20:12.584Z,12.59
2023-01-17T17:22:40.975Z,12.59
2023-01-17T17:25:07.817Z,12.70
2023-01-17T17:27:34.357Z,12.76
2023-01-17T17:30:00.982Z,12.87
2023-01-17T17:32:28.131Z,12.95
2023-01-17T17:34:54.630Z,12.97
2023-01-17T17:37:22.526Z,12.95
2023-01-17T17:39:49.479Z,12.93
2023-01-17T17:42:16.099Z,12.85
2023-01-17T17:44:42.630Z,12.84
2023-01-17T17:47:11.687Z,12.75
2023-01-17T17:49:38.950Z,12.76
2023-01-17T17:52:09.171Z,12.78
2023-01-17T17:54:36.022Z,12.73
2023-01-17T17:57:02.812Z,12.72
2023-01-17T17:59:30.008Z,12.74
2023-01-17T18:01:57.067Z,12.77
2023-01-17T18:04:23.786Z,12.73
2023-01-17T18:06:50.396Z,12.75
2023-01-17T18:09:17.379Z,12.78
2023-01-17T18:11:44.475Z,12.81
2023-01-17T18:14:14.160Z,12.84
2023-01-17T18:16:43.763Z,12.94
2023-01-17T18:19:24.914Z,13.01
2023-01-17T18:21:52.706Z,13.03
2023-01-17T18:24:21.849Z,13.12
2023-01-17T18:26:53.895Z,13.14
2023-01-17T18:29:22.033Z,13.08
2023-01-17T18:31:50.427Z,13.08
2023-01-17T18:34:21.307Z,13.00
2023-01-17T18:36:47.823Z,13.04
2023-01-17T18:39:26.013Z,13.02
2023-01-17T18:41:53.969Z,12.98
2023-01-17T18:44:22.216Z,12.92
2023-01-17T18:46:50.342Z,12.87
2023-01-17T18:49:19.297Z,12.81
2023-01-17T18:51:50.450Z,12.78
2023-01-17T18:54:18.220Z,12.75
2023-01-17T18:56:45.071Z,12.82
2023-01-17T18:59:13.000Z,12.76
2023-01-17T19:01:42.256Z,12.78
2023-01-17T19:04:09.575Z,12.65
2023-01-17T19:06:39.740Z,12.57
2023-01-17T19:09:07.799Z,12.49
2023-01-17T19:11:35.277Z,12.46
2023-01-17T19:14:02.833Z,12.46
2023-01-17T19:16:31.743Z,12.44
2023-01-17T19:19:02.338Z,12.46
2023-01-17T19:21:29.791Z,12.53
2023-01-17T19:23:56.978Z,12.55
2023-01-17T19:26:25.538Z,12.66
2023-01-17T19:28:52.207Z,12.72
2023-01-17T19:31:24.145Z,12.78
2023-01-17T19:33:53.557Z,12.75
2023-01-17T19:36:23.632Z,12.76
2023-01-17T19:39:03.474Z,12.67
2023-01-17T19:41:32.009Z,12.65
2023-01-17T20:08:42.549Z,12.91
2023-01-17T20:11:20.845Z,12.83
2023-01-17T20:13:49.245Z,12.83
2023-01-17T20:16:17.026Z,12.78
2023-01-17T20:18:44.575Z,12.74
2023-01-17T20:21:15.460Z,12.73
2023-01-17T20:23:43.234Z,12.78
2023-01-17T20:26:15.340Z,12.73
2023-01-17T20:28:43.592Z,12.77
2023-01-17T20:31:15.545Z,12.77
2023-01-17T20:33:44.036Z,12.77
2023-01-17T20:36:14.934Z,12.73
2023-01-17T20:38:45.687Z,12.77
2023-01-17T20:41:25.762Z,12.73
2023-01-17T20:43:55.182Z,12.78
2023-01-17T20:46:24.301Z,12.82
2023-01-17T20:48:53.284Z,12.82
2023-01-17T20:51:21.677Z,12.83
2023-01-17T20:53:52.555Z,12.92
2023-01-17T20:56:19.863Z,12.89
2023-01-17T20:58:46.607Z,12.87
2023-01-17T21:01:19.823Z,12.76
2023-01-17T21:03:49.289Z,12.70
2023-01-17T21:06:16.127Z,12.63
2023-01-17T21:08:44.659Z,12.59
2023-01-17T21:11:13.561Z,12.54
2023-01-17T21:13:40.406Z,12.52
2023-01-17T21:16:09.335Z,12.53
2023-01-17T21:18:36.496Z,12.46
2023-01-17T21:21:08.621Z,12.46
2023-01-17T21:23:36.616Z,12.50
2023-01-17T21:26:04.373Z,12.63
2023-01-17T21:28:34.191Z,12.63
2023-01-17T21:31:01.582Z,12.54
2023-01-17T21:33:29.446Z,12.66
2023-01-17T21:36:06.736Z,12.63
2023-01-17T21:38:33.263Z,12.60
2023-01-17T21:40:59.799Z,12.48
2023-01-17T21:43:26.473Z,12.49
2023-01-17T21:45:53.523Z,12.45
2023-01-17T21:48:20.281Z,12.31
2023-01-17T21:50:47.391Z,12.32
2023-01-17T21:53:14.168Z,12.22
2023-01-17T21:55:58.920Z,12.04
2023-01-17T21:58:43.690Z,12.02
2023-01-17T22:01:17.826Z,11.86
2023-01-17T22:03:56.125Z,11.91
2023-01-17T22:06:25.133Z,11.92
2023-01-17T22:08:51.678Z,12.00
2023-01-17T22:11:20.844Z,11.91
2023-01-17T22:13:47.909Z,12.02
2023-01-17T22:16:18.069Z,12.06
2023-01-17T22:18:45.554Z,12.01
2023-01-17T22:21:13.645Z,12.04
2023-01-17T22:23:54.730Z,12.16
2023-01-17T22:26:23.425Z,12.16
2023-01-17T22:28:50.032Z,12.23
2023-01-17T22:31:22.452Z,12.17
2023-01-17T22:33:57.954Z,12.19
2023-01-17T22:36:24.988Z,12.20
2023-01-17T22:38:52.232Z,12.23
2023-01-17T22:41:24.436Z,12.12
2023-01-17T22:43:57.053Z,12.18
2023-01-17T22:46:27.383Z,12.19
2023-01-17T22:48:55.689Z,12.14
2023-01-17T22:51:26.142Z,12.14
2023-01-17T22:53:55.827Z,12.11
2023-01-17T22:56:26.513Z,12.08
2023-01-17T22:58:53.371Z,12.07
2023-01-17T23:01:23.467Z,11.99
2023-01-17T23:03:57.261Z,12.03
2023-01-17T23:06:25.652Z,12.02
2023-01-17T23:08:55.575Z,11.97
2023-01-17T23:11:49.777Z,11.99
2023-01-17T23:14:31.106Z,11.98
2023-01-17T23:17:21.471Z,11.99
2023-01-17T23:19:51.054Z,11.98
2023-01-17T23:22:21.331Z,12.01
2023-01-17T23:24:58.212Z,11.98
2023-01-17T23:27:47.529Z,11.98
2023-01-17T23:30:16.479Z,11.91
2023-01-17T23:32:52.398Z,11.87
2023-01-17T23:35:21.616Z,11.84
2023-01-17T23:38:06.674Z,11.86
2023-01-17T23:40:35.574Z,11.88
2023-01-17T23:43:21.239Z,11.80
2023-01-17T23:45:48.063Z,11.99
2023-01-17T23:48:14.991Z,12.13
2023-01-17T23:50:44.358Z,12.18
2023-01-17T23:53:15.437Z,12.16
2023-01-17T23:55:45.715Z,12.18
2023-01-17T23:58:12.663Z,12.17
